This is the latest recevied weather packets stored in our database for station/object OK1SBY-15. If no packets are shown the sender has not sent any weather packets the latest 10 day(s).
| Time | Temp. | Humidity | Pressure | Rain* | Wind** | Luminosity | Snow |
|---|---|---|---|---|---|---|---|
| 1778031842 | 11.67° C | 10% | - | 0 mm | - | - | - |
| 1778028253 | 11.11° C | 10% | - | 0 mm | - | - | - |
| 1778024661 | 11.67° C | 10% | - | 0 mm | - | - | - |
| 1778021069 | 11.67° C | 10% | - | 0 mm | - | - | - |
| 1778017480 | 11.67° C | 10% | - | 0 mm | - | - | - |
| 1778013890 | 15° C | 10% | - | 0 mm | - | - | - |
| 1778010304 | 17.22° C | 86% | 989.6 hPa | 0 mm | - | - | - |
| 1778006710 | 17.22° C | 84% | 989.9 hPa | 0 mm | - | - | - |
| 1778003120 | 18.33° C | 74% | 989.8 hPa | 0 mm | - | - | - |
| 1777999529 | 21.11° C | 65% | 990 hPa | 0 mm | - | - | - |
| 1777992359 | 28.33° C | 38% | 990.6 hPa | 0 mm | - | - | - |
| 1777988762 | 31.67° C | 32% | 991 hPa | 0 mm | - | - | - |
| 1777981551 | 31.67° C | 29% | 992 hPa | 0 mm | - | - | - |
| 1777977938 | 30.56° C | 34% | 992.5 hPa | 0 mm | - | - | - |
| 1777974318 | 23.89° C | 51% | 993.1 hPa | 0 mm | - | - | - |
| 1777970709 | 23.89° C | 48% | 993.3 hPa | 0 mm | - | - | - |
| 1777967107 | 21.67° C | 66% | 993.6 hPa | 0 mm | - | - | - |
| 1777963505 | 17.78° C | 77% | 994.2 hPa | 0 mm | - | - | - |
| 1777956302 | 14.44° C | 94% | 993.9 hPa | 0 mm | - | - | - |
| 1777952709 | 13.89° C | 85% | 993.8 hPa | 0 mm | - | - | - |
| 1777949117 | 15.56° C | 72% | 994.2 hPa | 0 mm | - | - | - |
| 1777945523 | 15.56° C | 72% | 994.7 hPa | 0 mm | - | - | - |
| 1777941925 | 15° C | 80% | 995.5 hPa | 0 mm | - | - | - |
| 1777934735 | 17.78° C | 59% | 996 hPa | 0 mm | - | - | - |
| 1777931139 | 17.78° C | 59% | 996.4 hPa | 0 mm | - | - | - |
* Rain latest hour (hover to see other rain measurements)
** Current wind speed in m/s (hover to see current wind gust speed)